Time;durP1;ratioP1;P1;durP2;ratioP2;P2;SDS_P1;SDS_P2;PMS_P1;PMS_P2;Temp;Humidity;BMP_temperature;BMP_pressure;BME280_temperature;BME280_humidity;BME280_pressure;Samples;Min_cycle;Max_cycle;Signal;HPM_P1;HPM_P2
2022/02/22 00:01:17;;;;;;;4.80;2.20;;;9.30;77.40;;;;;;4797614;29;20030;-83
2022/02/22 00:03:43;;;;;;;5.90;1.85;;;9.30;77.40;;;;;;4798175;29;20050;-83
2022/02/22 00:06:11;;;;;;;6.72;2.00;;;9.20;77.40;;;;;;4798858;29;20094;-83
2022/02/22 00:08:37;;;;;;;7.63;2.08;;;9.20;77.40;;;;;;4813006;29;20046;-84
2022/02/22 00:11:03;;;;;;;5.43;2.03;;;9.20;77.40;;;;;;4783470;29;20109;-83
2022/02/22 00:13:29;;;;;;;4.93;2.08;;;9.20;77.30;;;;;;4828099;29;20034;-83
2022/02/22 00:15:56;;;;;;;4.93;1.90;;;9.20;77.40;;;;;;4843729;29;20030;-83
2022/02/22 00:18:22;;;;;;;5.97;2.40;;;9.20;77.40;;;;;;4827216;29;20034;-83
2022/02/22 00:20:49;;;;;;;5.00;2.00;;;9.20;77.40;;;;;;4827519;29;20037;-84
2022/02/22 00:23:15;;;;;;;5.28;2.08;;;9.20;77.50;;;;;;4812377;29;20057;-83
2022/02/22 00:25:40;;;;;;;6.18;2.20;;;9.20;77.50;;;;;;4812032;29;20033;-85
2022/02/22 00:28:06;;;;;;;8.55;2.50;;;9.20;77.40;;;;;;4827157;29;20036;-83
2022/02/22 00:30:33;;;;;;;7.07;2.03;;;9.20;77.50;;;;;;4827712;29;20376;-82
2022/02/22 00:32:59;;;;;;;5.22;1.95;;;9.20;77.40;;;;;;4812393;29;20037;-84
2022/02/22 00:35:26;;;;;;;6.35;2.20;;;9.20;77.40;;;;;;4798411;29;20117;-85
2022/02/22 00:37:52;;;;;;;6.53;1.88;;;9.20;77.50;;;;;;4797707;29;20034;-83
2022/02/22 00:40:18;;;;;;;4.85;2.25;;;9.20;77.50;;;;;;4811982;29;20030;-83
2022/02/22 00:42:44;;;;;;;7.38;2.30;;;9.20;77.50;;;;;;4827355;29;20037;-84
2022/02/22 00:45:11;;;;;;;4.70;1.85;;;9.20;77.50;;;;;;4827840;29;20034;-82
2022/02/22 00:47:38;;;;;;;5.75;1.90;;;9.20;77.50;;;;;;4827503;29;20023;-83
2022/02/22 00:50:05;;;;;;;5.80;2.17;;;9.20;77.50;;;;;;4827446;29;20111;-85
2022/02/22 00:52:31;;;;;;;7.25;2.28;;;9.20;77.50;;;;;;4827436;29;20034;-83
2022/02/22 00:54:57;;;;;;;4.70;1.85;;;9.20;77.50;;;;;;4827218;29;20038;-83
2022/02/22 00:57:23;;;;;;;4.82;2.13;;;9.20;77.50;;;;;;4827340;29;20121;-83
2022/02/22 00:59:49;;;;;;;4.45;2.10;;;9.20;77.50;;;;;;4827613;29;20407;-83
2022/02/22 01:02:14;;;;;;;4.28;1.85;;;9.20;77.40;;;;;;4811869;29;20030;-84
2022/02/22 01:04:40;;;;;;;5.07;2.20;;;9.20;77.50;;;;;;4813300;29;20025;-84
2022/02/22 01:07:06;;;;;;;4.82;1.83;;;9.20;77.50;;;;;;4827812;29;20034;-82
2022/02/22 01:09:32;;;;;;;6.70;2.05;;;9.20;77.50;;;;;;4812097;29;20044;-83
2022/02/22 01:11:59;;;;;;;5.53;1.83;;;9.20;77.50;;;;;;4813067;29;20086;-84
2022/02/22 01:14:25;;;;;;;8.05;2.20;;;9.10;77.40;;;;;;4811927;29;20030;-83
2022/02/22 01:16:51;;;;;;;4.60;1.85;;;9.10;77.40;;;;;;4812376;29;20034;-83
2022/02/22 01:19:17;;;;;;;4.70;1.83;;;9.10;77.40;;;;;;4811896;29;20042;-82
2022/02/22 01:21:43;;;;;;;6.57;2.00;;;9.10;77.40;;;;;;4811666;29;20065;-83
2022/02/22 01:24:10;;;;;;;5.75;2.08;;;9.10;77.40;;;;;;4811772;29;20038;-83
2022/02/22 01:26:37;;;;;;;3.10;1.75;;;9.10;77.50;;;;;;4843224;29;20110;-85
2022/02/22 01:29:03;;;;;;;5.53;2.28;;;9.10;77.50;;;;;;4828412;29;20130;-84
2022/02/22 01:31:29;;;;;;;3.90;1.67;;;9.10;77.50;;;;;;4831062;29;20030;-83
2022/02/22 01:33:55;;;;;;;5.32;1.83;;;9.10;77.50;;;;;;4815825;29;20038;-83
2022/02/22 01:36:22;;;;;;;5.38;2.53;;;9.10;77.50;;;;;;4815115;29;20375;-83
2022/02/22 01:38:49;;;;;;;4.85;2.00;;;9.10;77.50;;;;;;4829986;29;20042;-83
2022/02/22 01:41:14;;;;;;;5.38;1.98;;;9.10;77.50;;;;;;4815008;29;20544;-83
2022/02/22 01:43:41;;;;;;;4.68;1.80;;;9.10;77.50;;;;;;4829590;29;20042;-82
2022/02/22 01:46:07;;;;;;;4.15;2.03;;;9.10;77.50;;;;;;4845872;29;20069;-84
2022/02/22 01:48:33;;;;;;;4.70;1.92;;;9.10;77.50;;;;;;4814775;29;20042;-84
2022/02/22 01:50:58;;;;;;;7.70;2.30;;;9.00;77.50;;;;;;4829836;29;20041;-83
2022/02/22 01:53:25;;;;;;;4.75;2.20;;;9.00;77.50;;;;;;4799634;29;20107;-83
2022/02/22 01:55:51;;;;;;;6.65;2.00;;;9.10;77.60;;;;;;4829974;29;20029;-83
2022/02/22 01:58:17;;;;;;;5.90;2.33;;;9.00;77.50;;;;;;4799269;29;20070;-83
2022/02/22 02:00:46;;;;;;;4.68;1.92;;;9.00;78.10;;;;;;4829290;29;20129;-87
2022/02/22 02:03:13;;;;;;;6.53;2.05;;;9.00;77.50;;;;;;4814542;29;20420;-83
2022/02/22 02:05:39;;;;;;;4.57;2.10;;;9.00;77.50;;;;;;4829474;29;20030;-83
2022/02/22 02:08:04;;;;;;;5.10;2.10;;;9.00;77.50;;;;;;4814095;29;20049;-84
2022/02/22 02:10:30;;;;;;;6.63;2.22;;;9.00;77.50;;;;;;4814173;29;20040;-84
2022/02/22 02:12:56;;;;;;;9.25;1.90;;;9.00;77.50;;;;;;4814059;29;20046;-84
2022/02/22 02:15:22;;;;;;;4.05;1.73;;;9.00;77.60;;;;;;4784239;29;20030;-82
2022/02/22 02:17:47;;;;;;;4.85;2.10;;;8.90;77.50;;;;;;4813874;29;20045;-84
2022/02/22 02:20:13;;;;;;;4.53;2.28;;;8.90;77.50;;;;;;4813891;29;20095;-83
2022/02/22 02:22:40;;;;;;;5.00;2.17;;;8.90;77.50;;;;;;4829093;29;20056;-83
2022/02/22 02:25:07;;;;;;;4.63;2.05;;;8.90;77.50;;;;;;4829142;29;20042;-84
2022/02/22 02:27:33;;;;;;;5.70;2.00;;;8.90;77.60;;;;;;4829063;29;20030;-83
2022/02/22 02:29:59;;;;;;;5.15;1.90;;;8.90;77.60;;;;;;4828819;29;20041;-83
2022/02/22 02:32:29;;;;;;;4.57;1.83;;;8.90;77.60;;;;;;4828931;29;20034;-83
2022/02/22 02:34:55;;;;;;;6.25;2.20;;;8.80;77.50;;;;;;4828595;29;20030;-83
2022/02/22 02:37:22;;;;;;;4.90;2.47;;;8.90;77.60;;;;;;4813627;29;20034;-84
2022/02/22 02:39:48;;;;;;;3.70;1.80;;;8.90;77.60;;;;;;4798006;29;20057;-84
2022/02/22 02:42:16;;;;;;;3.63;1.70;;;8.80;77.60;;;;;;4828980;29;20045;-83
2022/02/22 02:44:44;;;;;;;4.22;1.95;;;8.80;77.60;;;;;;4828655;29;20140;-83
2022/02/22 02:47:10;;;;;;;6.30;2.22;;;8.80;77.60;;;;;;4813610;29;20112;-83
2022/02/22 02:49:36;;;;;;;5.15;1.92;;;8.80;77.60;;;;;;4813887;29;20045;-83
2022/02/22 02:52:02;;;;;;;5.10;1.90;;;8.80;77.60;;;;;;4813435;29;20022;-84
2022/02/22 02:54:28;;;;;;;2.88;1.52;;;8.80;77.60;;;;;;4828387;29;20060;-83
2022/02/22 02:56:53;;;;;;;3.70;1.63;;;8.80;77.60;;;;;;4813739;29;20166;-83
2022/02/22 02:59:19;;;;;;;4.30;1.92;;;8.80;77.60;;;;;;4798671;29;20042;-83
2022/02/22 03:01:45;;;;;;;3.97;1.77;;;8.70;77.50;;;;;;4813785;29;20036;-83
2022/02/22 03:04:12;;;;;;;6.13;1.88;;;8.70;77.60;;;;;;4813418;29;20074;-84
2022/02/22 03:06:39;;;;;;;3.88;1.83;;;8.70;77.60;;;;;;4813398;29;20030;-83
2022/02/22 03:09:06;;;;;;;7.00;2.40;;;8.70;77.60;;;;;;4814008;29;20054;-85
2022/02/22 03:11:32;;;;;;;4.20;1.70;;;8.70;77.60;;;;;;4828359;29;20475;-83
2022/02/22 03:13:58;;;;;;;4.25;1.83;;;8.70;77.60;;;;;;4813571;29;20049;-83
2022/02/22 03:16:24;;;;;;;4.95;1.90;;;8.60;77.60;;;;;;4828497;29;20101;-84
2022/02/22 03:18:50;;;;;;;4.80;2.00;;;8.60;77.60;;;;;;4828932;29;20117;-83
2022/02/22 03:21:16;;;;;;;5.28;2.13;;;8.60;77.60;;;;;;4812975;29;20077;-83
2022/02/22 03:23:41;;;;;;;5.88;2.08;;;8.60;77.60;;;;;;4813071;29;20121;-83
2022/02/22 03:26:08;;;;;;;4.88;1.75;;;8.60;77.60;;;;;;4828361;29;20048;-83
2022/02/22 03:28:34;;;;;;;4.43;2.08;;;8.60;77.60;;;;;;4833228;29;20038;-82
2022/02/22 03:31:03;;;;;;;3.83;1.80;;;8.60;77.60;;;;;;4814598;29;20045;-83
2022/02/22 03:33:29;;;;;;;4.25;1.67;;;8.60;78.20;;;;;;4812592;29;20070;-83
2022/02/22 03:35:54;;;;;;;4.88;1.60;;;8.60;77.70;;;;;;4812982;29;20030;-87
2022/02/22 03:38:20;;;;;;;4.65;1.80;;;8.50;77.60;;;;;;4813730;29;20460;-83
2022/02/22 03:40:46;;;;;;;3.47;1.33;;;8.50;77.60;;;;;;4798299;29;20423;-83
2022/02/22 03:43:12;;;;;;;5.32;1.90;;;8.50;77.60;;;;;;4797478;29;20045;-83
2022/02/22 03:45:37;;;;;;;5.30;1.98;;;8.50;77.60;;;;;;4813174;29;20026;-84
2022/02/22 03:48:03;;;;;;;4.28;1.80;;;8.50;77.60;;;;;;4812663;29;20098;-84
2022/02/22 03:50:30;;;;;;;4.45;1.73;;;8.40;77.60;;;;;;4813171;29;20026;-83
2022/02/22 03:52:55;;;;;;;5.82;2.08;;;8.40;77.60;;;;;;4827596;29;20037;-84
2022/02/22 03:55:22;;;;;;;3.55;1.80;;;8.40;77.60;;;;;;4827489;29;20026;-84
2022/02/22 03:57:48;;;;;;;6.63;2.00;;;8.40;77.60;;;;;;4813097;29;20099;-83
2022/02/22 04:00:20;;;;;;;5.68;2.20;;;8.40;77.60;;;;;;4812452;29;20033;-83
2022/02/22 04:02:47;;;;;;;5.03;1.95;;;8.40;77.70;;;;;;4827401;29;20038;-85
2022/02/22 04:05:14;;;;;;;4.32;1.60;;;8.40;77.70;;;;;;4827539;29;20045;-82
2022/02/22 04:07:40;;;;;;;5.97;2.20;;;8.40;77.70;;;;;;4827251;29;20069;-84
2022/02/22 04:10:07;;;;;;;4.65;1.90;;;8.30;77.70;;;;;;4812349;29;20379;-83
2022/02/22 04:12:33;;;;;;;5.30;1.73;;;8.30;78.30;;;;;;4827527;29;20053;-84
2022/02/22 04:15:00;;;;;;;3.60;1.83;;;8.30;77.70;;;;;;4829853;29;20142;-86
2022/02/22 04:17:26;;;;;;;4.72;1.95;;;8.30;77.70;;;;;;4829207;29;20486;-84
2022/02/22 04:19:52;;;;;;;4.93;2.03;;;8.30;77.70;;;;;;4812227;29;20034;-84
2022/02/22 04:22:19;;;;;;;6.78;2.13;;;8.30;77.70;;;;;;4811880;29;20073;-83
2022/02/22 04:24:45;;;;;;;5.00;1.95;;;8.30;77.70;;;;;;4812735;29;20395;-83
2022/02/22 04:27:12;;;;;;;5.70;2.10;;;8.30;77.70;;;;;;4827177;29;20042;-83
2022/02/22 04:29:38;;;;;;;4.25;1.95;;;8.30;77.70;;;;;;4827242;29;20032;-83
2022/02/22 04:32:07;;;;;;;5.13;1.92;;;8.30;77.70;;;;;;4811997;29;20034;-84
2022/02/22 04:34:34;;;;;;;4.07;1.73;;;8.30;77.80;;;;;;4811717;29;20034;-83
2022/02/22 04:37:00;;;;;;;4.82;1.77;;;8.30;77.80;;;;;;4827017;29;20129;-84
2022/02/22 04:39:26;;;;;;;5.93;2.47;;;8.30;77.80;;;;;;4827400;29;20109;-85
2022/02/22 04:41:52;;;;;;;3.65;2.00;;;8.20;77.70;;;;;;4827320;29;20042;-85
2022/02/22 04:44:18;;;;;;;6.38;2.10;;;8.20;77.70;;;;;;4811807;29;20041;-84
2022/02/22 04:46:44;;;;;;;4.47;1.90;;;8.20;77.80;;;;;;4827661;29;20042;-84
2022/02/22 04:49:10;;;;;;;4.22;1.80;;;8.20;77.80;;;;;;4812096;29;20463;-83
2022/02/22 04:51:37;;;;;;;3.90;1.85;;;8.20;77.80;;;;;;4827075;29;20090;-84
2022/02/22 04:54:03;;;;;;;4.85;1.70;;;8.20;77.80;;;;;;4827495;29;20053;-83
2022/02/22 04:56:29;;;;;;;4.70;1.75;;;8.20;77.80;;;;;;4811922;29;20387;-83
2022/02/22 04:58:56;;;;;;;7.10;2.28;;;8.20;78.40;;;;;;4812332;29;20099;-83
2022/02/22 05:01:22;;;;;;;4.13;1.83;;;8.20;77.80;;;;;;4827307;29;20124;-84
2022/02/22 05:03:48;;;;;;;4.53;1.90;;;8.10;77.80;;;;;;4813245;29;20535;-85
2022/02/22 05:06:14;;;;;;;3.70;1.70;;;8.10;77.80;;;;;;4816005;29;20137;-84
2022/02/22 05:08:40;;;;;;;4.18;1.50;;;8.10;77.80;;;;;;4800340;29;20030;-83
2022/02/22 05:11:07;;;;;;;3.95;1.77;;;8.10;77.80;;;;;;4800181;29;20037;-82
2022/02/22 05:13:33;;;;;;;4.82;1.75;;;8.10;77.80;;;;;;4800304;29;20038;-83
2022/02/22 05:15:59;;;;;;;4.25;1.90;;;8.10;77.80;;;;;;4815175;29;20038;-84
2022/02/22 05:18:24;;;;;;;2.95;1.77;;;8.10;77.80;;;;;;4814864;29;20033;-85
2022/02/22 05:20:56;;;;;;;4.85;1.85;;;8.10;77.80;;;;;;4814683;29;20030;-84
2022/02/22 05:23:28;;;;;;;3.13;1.80;;;8.10;77.80;;;;;;4830456;29;20050;-84
2022/02/22 05:25:54;;;;;;;5.38;2.10;;;8.10;77.90;;;;;;4831054;29;20045;-83
2022/02/22 05:28:22;;;;;;;4.07;1.65;;;8.00;77.80;;;;;;4830989;29;20034;-83
2022/02/22 05:30:50;;;;;;;4.75;1.75;;;8.10;77.90;;;;;;4833062;29;20037;-87
2022/02/22 05:33:16;;;;;;;5.45;2.00;;;8.10;77.90;;;;;;4819844;29;20038;-81
2022/02/22 05:35:50;;;;;;;4.63;1.65;;;8.00;78.50;;;;;;4818296;29;20041;-78
2022/02/22 05:38:16;;;;;;;4.75;2.00;;;8.00;77.90;;;;;;4802088;29;20038;-81
2022/02/22 05:40:42;;;;;;;6.28;1.83;;;8.00;77.80;;;;;;4816651;29;20057;-82
2022/02/22 05:43:08;;;;;;;3.60;1.50;;;8.00;77.90;;;;;;4814944;29;20078;-82
2022/02/22 05:45:35;;;;;;;6.38;2.00;;;8.00;77.90;;;;;;4814709;29;20061;-81
2022/02/22 05:48:00;;;;;;;3.60;2.00;;;8.00;77.90;;;;;;4814570;29;20041;-83
2022/02/22 05:50:26;;;;;;;5.45;2.28;;;8.00;77.90;;;;;;4829711;29;20078;-86
2022/02/22 05:52:53;;;;;;;6.00;1.98;;;8.00;77.90;;;;;;4800310;29;20425;-82
2022/02/22 05:55:19;;;;;;;2.72;1.52;;;8.00;77.90;;;;;;4830189;29;20030;-82
2022/02/22 05:57:49;;;;;;;2.40;1.40;;;8.00;77.90;;;;;;4829311;29;20065;-83
2022/02/22 06:00:15;;;;;;;2.72;1.40;;;8.00;78.00;;;;;;4845723;29;20022;-80
2022/02/22 06:02:40;;;;;;;5.55;1.77;;;7.90;77.90;;;;;;4814693;29;20160;-80
2022/02/22 06:05:07;;;;;;;1.98;1.40;;;7.90;77.90;;;;;;4814096;29;20176;-81
2022/02/22 06:07:33;;;;;;;3.45;1.40;;;7.90;77.90;;;;;;4813769;29;20048;-81
2022/02/22 06:09:58;;;;;;;3.08;1.70;;;7.90;77.90;;;;;;4813250;29;20108;-81
2022/02/22 06:12:24;;;;;;;3.10;1.67;;;7.90;77.90;;;;;;4813961;29;20513;-81
2022/02/22 06:14:50;;;;;;;3.35;1.48;;;7.90;77.90;;;;;;4812542;29;20025;-83
2022/02/22 06:17:15;;;;;;;7.30;2.00;;;7.90;77.90;;;;;;4799403;29;20112;-81
2022/02/22 06:19:47;;;;;;;4.05;1.67;;;7.80;77.80;;;;;;4814604;29;20030;-86
2022/02/22 06:22:13;;;;;;;2.17;1.55;;;7.80;77.90;;;;;;4813635;29;20137;-81
2022/02/22 06:24:39;;;;;;;5.47;1.88;;;7.80;77.80;;;;;;4828713;29;20125;-81
2022/02/22 06:27:05;;;;;;;3.10;1.65;;;7.80;77.80;;;;;;4828901;29;20056;-80
2022/02/22 06:29:31;;;;;;;4.88;1.70;;;7.80;77.90;;;;;;4813605;29;20030;-81
2022/02/22 06:31:57;;;;;;;2.90;1.50;;;7.80;77.90;;;;;;4828127;29;20102;-80
2022/02/22 06:34:23;;;;;;;2.75;1.80;;;7.80;77.90;;;;;;4813655;29;20041;-84
2022/02/22 06:36:49;;;;;;;3.55;1.55;;;7.80;77.90;;;;;;4828631;29;20050;-80
2022/02/22 06:39:14;;;;;;;2.78;1.60;;;7.80;77.90;;;;;;4814018;29;20034;-80
2022/02/22 06:41:40;;;;;;;3.33;2.00;;;7.80;77.90;;;;;;4813305;29;20381;-82
2022/02/22 06:44:06;;;;;;;6.50;1.92;;;7.80;77.90;;;;;;4828913;29;20102;-81
2022/02/22 06:46:32;;;;;;;4.95;1.60;;;7.70;77.90;;;;;;4828185;29;20199;-80
2022/02/22 06:48:57;;;;;;;5.47;1.88;;;7.70;77.90;;;;;;4813093;29;20428;-81
2022/02/22 06:51:24;;;;;;;3.42;1.88;;;7.70;77.90;;;;;;4812841;29;20069;-81
2022/02/22 06:53:49;;;;;;;2.28;1.52;;;7.70;77.90;;;;;;4812840;29;20407;-79
2022/02/22 06:56:15;;;;;;;3.33;1.65;;;7.70;77.90;;;;;;4827860;29;20070;-80
2022/02/22 06:58:41;;;;;;;3.47;1.50;;;7.70;77.90;;;;;;4812747;29;20038;-80
2022/02/22 07:01:07;;;;;;;2.10;1.58;;;7.70;77.90;;;;;;4797570;29;20041;-81
2022/02/22 07:03:33;;;;;;;4.22;1.90;;;7.60;77.90;;;;;;4844640;29;20033;-81
2022/02/22 07:05:59;;;;;;;4.13;1.80;;;7.70;77.90;;;;;;4812997;29;20038;-81
2022/02/22 07:08:24;;;;;;;3.33;1.50;;;7.60;77.90;;;;;;4828452;29;20038;-81
2022/02/22 07:10:50;;;;;;;5.38;1.80;;;7.60;78.00;;;;;;4797980;29;20493;-80
2022/02/22 07:13:16;;;;;;;4.30;1.70;;;7.60;78.00;;;;;;4797913;29;20064;-80
2022/02/22 07:15:41;;;;;;;3.92;1.73;;;7.60;77.90;;;;;;4812498;29;20034;-81
2022/02/22 07:18:13;;;;;;;3.63;1.80;;;7.60;78.00;;;;;;4812472;29;20427;-80
2022/02/22 07:20:40;;;;;;;3.75;1.70;;;7.60;78.00;;;;;;4827776;29;20042;-81
2022/02/22 07:23:06;;;;;;;3.80;1.65;;;7.60;78.00;;;;;;4827784;29;20137;-81
2022/02/22 07:25:32;;;;;;;4.38;1.67;;;7.60;78.00;;;;;;4827322;29;20119;-83
2022/02/22 07:28:00;;;;;;;5.18;1.95;;;7.60;78.00;;;;;;4827386;29;20451;-80
2022/02/22 07:30:27;;;;;;;4.43;1.80;;;7.60;78.00;;;;;;4827947;29;20036;-80
2022/02/22 07:32:56;;;;;;;3.42;1.70;;;7.60;78.00;;;;;;4812216;29;20480;-80
2022/02/22 07:35:22;;;;;;;4.43;2.05;;;7.60;78.00;;;;;;4827513;29;20516;-80
2022/02/22 07:37:48;;;;;;;2.97;1.42;;;7.60;78.10;;;;;;4812896;29;20037;-82
2022/02/22 07:40:17;;;;;;;2.72;1.50;;;7.60;78.10;;;;;;4827779;29;20026;-80
2022/02/22 07:42:44;;;;;;;3.40;1.60;;;7.50;78.00;;;;;;4843769;29;20046;-82
2022/02/22 07:45:11;;;;;;;3.00;1.38;;;7.60;78.70;;;;;;4812272;29;20194;-81
2022/02/22 07:47:37;;;;;;;5.13;1.48;;;7.60;78.20;;;;;;4843906;29;20034;-81
2022/02/22 07:50:04;;;;;;;3.50;1.45;;;7.60;78.20;;;;;;4827570;29;20038;-79
2022/02/22 07:52:31;;;;;;;3.95;1.70;;;7.50;78.10;;;;;;4812156;29;20030;-80
2022/02/22 07:54:57;;;;;;;4.88;1.60;;;7.60;78.20;;;;;;4843851;29;20034;-83
2022/02/22 07:57:24;;;;;;;3.40;1.60;;;7.50;78.20;;;;;;4812363;29;20038;-83
2022/02/22 07:59:50;;;;;;;3.25;1.92;;;7.60;78.20;;;;;;4812259;29;20022;-82
2022/02/22 08:02:16;;;;;;;2.50;1.50;;;7.60;78.20;;;;;;4826714;29;20061;-81
2022/02/22 08:04:42;;;;;;;3.63;1.60;;;7.50;78.20;;;;;;4827394;29;20460;-79
2022/02/22 08:07:09;;;;;;;2.42;1.45;;;7.60;78.30;;;;;;4827040;29;20038;-80
2022/02/22 08:09:35;;;;;;;3.05;1.35;;;7.60;78.20;;;;;;4826562;29;20041;-80
2022/02/22 08:12:01;;;;;;;1.80;1.48;;;7.50;78.20;;;;;;4826712;29;20061;-81
2022/02/22 08:14:29;;;;;;;3.78;1.60;;;7.60;78.20;;;;;;4827148;29;20069;-80
2022/02/22 08:17:00;;;;;;;2.97;1.52;;;7.60;78.90;;;;;;4797045;29;20038;-80
2022/02/22 08:19:30;;;;;;;2.75;1.55;;;7.60;78.30;;;;;;4811346;29;20044;-81
2022/02/22 08:21:57;;;;;;;3.70;1.50;;;7.60;78.30;;;;;;4826816;29;20570;-79
2022/02/22 08:24:24;;;;;;;2.53;1.50;;;7.60;78.30;;;;;;4842963;29;20052;-81
2022/02/22 08:26:53;;;;;;;3.13;1.60;;;7.60;78.30;;;;;;4811737;29;20447;-82
2022/02/22 08:29:18;;;;;;;4.15;1.67;;;7.60;78.30;;;;;;4811277;29;20034;-83
2022/02/22 08:31:44;;;;;;;3.55;1.60;;;7.60;78.30;;;;;;4796668;29;20049;-80
2022/02/22 08:34:10;;;;;;;4.93;1.90;;;7.60;78.30;;;;;;4826636;29;20407;-83
2022/02/22 08:36:36;;;;;;;3.20;1.80;;;7.60;78.40;;;;;;4843517;29;20432;-80
2022/02/22 08:39:01;;;;;;;2.30;1.52;;;7.60;78.40;;;;;;4811237;29;20041;-80
2022/02/22 08:41:28;;;;;;;3.53;1.52;;;7.70;78.40;;;;;;4827008;29;20034;-80
2022/02/22 08:43:54;;;;;;;3.58;1.50;;;7.60;78.40;;;;;;4796521;29;20381;-81
2022/02/22 08:46:21;;;;;;;3.42;1.63;;;7.70;78.50;;;;;;4826671;29;20038;-81
2022/02/22 08:48:47;;;;;;;3.50;1.83;;;7.70;78.50;;;;;;4811224;29;20502;-84
2022/02/22 08:51:13;;;;;;;2.13;1.45;;;7.70;78.50;;;;;;4811271;29;20083;-80
2022/02/22 08:53:39;;;;;;;2.35;1.40;;;7.70;78.50;;;;;;4826169;29;20034;-80
2022/02/22 08:56:09;;;;;;;4.25;1.90;;;7.70;78.50;;;;;;4825874;29;20026;-81
2022/02/22 08:58:35;;;;;;;2.92;1.70;;;7.70;78.50;;;;;;4826517;29;20125;-82
2022/02/22 09:01:01;;;;;;;3.92;1.73;;;7.80;78.50;;;;;;4811141;29;20053;-80
2022/02/22 09:03:27;;;;;;;3.67;1.65;;;7.80;78.50;;;;;;4826422;29;20052;-82
2022/02/22 09:05:54;;;;;;;4.25;1.80;;;7.80;78.50;;;;;;4826678;29;20045;-83
2022/02/22 09:08:21;;;;;;;3.50;1.70;;;7.80;78.50;;;;;;4811127;29;20034;-81
2022/02/22 09:10:49;;;;;;;4.70;1.70;;;7.90;78.60;;;;;;4826652;29;20037;-81
2022/02/22 09:13:15;;;;;;;3.22;1.90;;;7.90;78.60;;;;;;4826499;29;20399;-82
2022/02/22 09:15:42;;;;;;;3.90;1.58;;;7.90;78.60;;;;;;4810955;29;20034;-81
2022/02/22 09:18:07;;;;;;;3.25;1.92;;;8.00;78.70;;;;;;4826223;29;20038;-80
2022/02/22 09:20:33;;;;;;;4.30;2.20;;;8.00;78.70;;;;;;4811516;29;20106;-80
2022/02/22 09:22:59;;;;;;;4.10;1.75;;;8.00;78.70;;;;;;4825999;29;20042;-81
2022/02/22 09:25:25;;;;;;;3.80;1.98;;;8.00;78.60;;;;;;4826530;29;20105;-80
2022/02/22 09:27:52;;;;;;;4.15;2.15;;;8.00;78.60;;;;;;4842685;29;20052;-81
2022/02/22 09:30:19;;;;;;;4.80;2.25;;;8.10;78.70;;;;;;4825998;29;20025;-81
2022/02/22 09:32:49;;;;;;;3.65;1.80;;;8.10;78.70;;;;;;4810945;29;20548;-81
2022/02/22 09:35:17;;;;;;;3.75;1.90;;;8.10;78.70;;;;;;4811226;29;20026;-80
2022/02/22 09:37:44;;;;;;;4.05;1.92;;;8.10;78.60;;;;;;4826294;29;20077;-83
2022/02/22 09:40:11;;;;;;;5.90;2.22;;;8.20;78.70;;;;;;4810968;29;20026;-84
2022/02/22 09:42:37;;;;;;;3.95;2.05;;;8.20;78.70;;;;;;4811713;29;20113;-81
2022/02/22 09:45:06;;;;;;;4.88;2.17;;;8.20;78.70;;;;;;4811143;29;20105;-83
2022/02/22 09:47:33;;;;;;;4.03;1.63;;;8.30;78.70;;;;;;4811215;29;20033;-81
2022/02/22 09:49:59;;;;;;;4.82;2.00;;;8.30;78.70;;;;;;4812746;29;20467;-81
2022/02/22 09:52:24;;;;;;;3.72;2.20;;;8.30;78.70;;;;;;4814660;29;20034;-81
2022/02/22 09:54:50;;;;;;;3.80;2.10;;;8.30;78.60;;;;;;4814209;29;20492;-79
2022/02/22 09:57:16;;;;;;;3.15;1.95;;;8.40;78.70;;;;;;4829381;29;20082;-81
2022/02/22 09:59:42;;;;;;;5.13;2.40;;;8.40;78.70;;;;;;4800600;29;20420;-82
2022/02/22 10:02:08;;;;;;;4.45;2.53;;;8.40;78.60;;;;;;4832152;29;20094;-81
2022/02/22 10:04:45;;;;;;;5.93;2.15;;;8.40;78.60;;;;;;4815557;29;20038;-81
2022/02/22 10:07:12;;;;;;;5.38;2.28;;;8.50;78.70;;;;;;4829404;29;20034;-82
2022/02/22 10:09:59;;;;;;;4.90;2.20;;;8.50;78.70;;;;;;4813496;29;20042;-80
2022/02/22 10:12:36;;;;;;;3.40;2.03;;;8.60;78.80;;;;;;4813823;29;20053;-82
2022/02/22 10:15:03;;;;;;;4.13;2.33;;;8.60;78.70;;;;;;4829331;29;20472;-80
2022/02/22 10:17:39;;;;;;;4.22;2.10;;;8.60;78.70;;;;;;4813390;29;20113;-81
2022/02/22 10:20:10;;;;;;;5.25;2.53;;;8.60;78.70;;;;;;4828686;29;20029;-80
2022/02/22 10:22:50;;;;;;;5.10;2.30;;;8.70;78.70;;;;;;4828384;29;20054;-81
2022/02/22 10:25:16;;;;;;;5.40;2.17;;;8.70;78.80;;;;;;4828143;29;20547;-80
2022/02/22 10:27:51;;;;;;;6.03;2.50;;;8.70;78.70;;;;;;4828678;29;20048;-80
2022/02/22 10:30:39;;;;;;;4.68;2.25;;;8.70;78.70;;;;;;4829048;29;20065;-82
2022/02/22 10:33:22;;;;;;;4.90;2.15;;;8.70;78.70;;;;;;4828352;29;20042;-81
2022/02/22 10:35:54;;;;;;;5.15;2.25;;;8.80;78.60;;;;;;4828328;29;20056;-80
2022/02/22 10:38:26;;;;;;;4.55;2.05;;;8.80;78.60;;;;;;4845100;29;20034;-83
2022/02/22 10:41:15;;;;;;;4.22;2.03;;;8.80;78.70;;;;;;4828320;29;20042;-81
2022/02/22 10:44:02;;;;;;;4.88;2.17;;;8.80;78.70;;;;;;4845681;29;20117;-80
2022/02/22 10:46:32;;;;;;;3.00;1.88;;;8.90;78.60;;;;;;4818968;29;20052;-79
2022/02/22 10:49:13;;;;;;;5.57;2.30;;;8.90;78.60;;;;;;4832585;29;20025;-82
2022/02/22 10:51:45;;;;;;;5.30;2.22;;;8.90;78.60;;;;;;4827470;29;20045;-80
2022/02/22 10:54:31;;;;;;;3.47;1.98;;;9.00;78.70;;;;;;4812640;29;20046;-82
2022/02/22 10:56:56;;;;;;;3.40;1.90;;;9.00;78.70;;;;;;4812914;29;20037;-80
2022/02/22 10:59:24;;;;;;;5.30;2.38;;;9.00;78.60;;;;;;4812411;29;20604;-81
2022/02/22 11:01:51;;;;;;;5.68;2.33;;;9.00;78.60;;;;;;4782306;29;20086;-80
2022/02/22 11:04:17;;;;;;;6.05;2.47;;;9.10;78.60;;;;;;4812717;29;20045;-83
2022/02/22 11:06:42;;;;;;;4.72;2.40;;;9.10;78.60;;;;;;4827731;29;20113;-80
2022/02/22 11:09:12;;;;;;;4.72;2.33;;;9.10;78.60;;;;;;4812747;29;20034;-82
2022/02/22 11:11:39;;;;;;;3.92;2.47;;;9.10;78.60;;;;;;4827765;29;20383;-80
2022/02/22 11:14:10;;;;;;;4.50;2.13;;;9.10;78.60;;;;;;4827569;29;20034;-79
2022/02/22 11:16:44;;;;;;;7.40;2.92;;;9.20;78.60;;;;;;4827483;29;20045;-81
2022/02/22 11:19:14;;;;;;;4.65;2.13;;;9.20;78.60;;;;;;4812939;29;20042;-80
2022/02/22 11:21:41;;;;;;;4.85;2.45;;;9.20;78.60;;;;;;4827124;29;20034;-82
2022/02/22 11:24:09;;;;;;;4.35;2.38;;;9.30;78.60;;;;;;4812552;29;20451;-81
2022/02/22 11:26:55;;;;;;;4.35;2.60;;;9.30;78.60;;;;;;4827607;29;20091;-80
2022/02/22 11:29:26;;;;;;;4.93;2.40;;;9.30;78.60;;;;;;4827712;29;20112;-81
2022/02/22 11:32:07;;;;;;;4.32;2.25;;;9.40;78.60;;;;;;4812581;29;20036;-80
2022/02/22 11:34:36;;;;;;;5.85;2.28;;;9.40;78.60;;;;;;4828225;29;20079;-79
2022/02/22 11:37:05;;;;;;;5.28;2.45;;;9.40;78.50;;;;;;4827382;29;20090;-80
2022/02/22 11:39:46;;;;;;;5.00;2.30;;;9.40;78.50;;;;;;4827373;29;20539;-83
2022/02/22 11:42:28;;;;;;;4.20;2.35;;;9.40;78.50;;;;;;4812321;29;20479;-82
2022/02/22 11:45:07;;;;;;;3.85;2.15;;;9.50;78.50;;;;;;4827650;29;20467;-80
2022/02/22 11:47:35;;;;;;;6.15;2.33;;;9.50;78.50;;;;;;4843739;29;20037;-79
2022/02/22 11:50:11;;;;;;;4.32;2.10;;;9.50;78.40;;;;;;4811769;29;20093;-79
2022/02/22 11:52:43;;;;;;;3.90;2.08;;;9.50;78.40;;;;;;4843469;29;20109;-79
2022/02/22 11:55:16;;;;;;;5.25;2.30;;;9.50;78.30;;;;;;4827338;29;20101;-80
2022/02/22 11:57:47;;;;;;;3.97;2.10;;;9.50;78.30;;;;;;4811813;29;20030;-79
2022/02/22 12:00:19;;;;;;;5.15;2.30;;;9.60;78.30;;;;;;4827023;29;20049;-78
2022/02/22 12:02:45;;;;;;;7.53;2.28;;;9.60;78.30;;;;;;4826869;29;20049;-80
2022/02/22 12:05:29;;;;;;;4.75;2.42;;;9.60;78.20;;;;;;4826927;29;20030;-80
2022/02/22 12:08:00;;;;;;;6.13;2.42;;;9.60;78.30;;;;;;4811381;29;20030;-83
2022/02/22 12:10:26;;;;;;;5.07;2.45;;;9.60;78.20;;;;;;4826896;29;20506;-81
2022/02/22 12:13:04;;;;;;;5.03;2.03;;;9.70;78.80;;;;;;4826100;29;20107;-78
2022/02/22 12:15:33;;;;;;;5.95;2.75;;;9.70;78.20;;;;;;4826467;29;20116;-83
2022/02/22 12:17:59;;;;;;;5.47;2.28;;;9.70;78.20;;;;;;4843304;29;20030;-81
2022/02/22 12:20:28;;;;;;;6.43;2.60;;;9.80;78.20;;;;;;4811357;29;20440;-81
2022/02/22 12:22:54;;;;;;;5.80;2.33;;;9.70;78.20;;;;;;4826566;29;20078;-80
2022/02/22 12:25:25;;;;;;;4.60;2.17;;;9.70;78.10;;;;;;4827218;29;20026;-81
2022/02/22 12:28:02;;;;;;;4.88;2.30;;;9.80;78.20;;;;;;4826871;29;20494;-81
2022/02/22 12:30:33;;;;;;;6.85;3.10;;;9.80;78.20;;;;;;4842869;29;20053;-80
2022/02/22 12:32:59;;;;;;;5.10;2.20;;;9.80;78.10;;;;;;4827286;29;20052;-82
2022/02/22 12:35:39;;;;;;;6.68;2.70;;;9.80;78.10;;;;;;4811298;29;20475;-81
2022/02/22 12:38:15;;;;;;;4.97;2.65;;;9.80;78.20;;;;;;4811169;29;20055;-81
2022/02/22 12:40:42;;;;;;;5.22;2.50;;;9.80;78.10;;;;;;4843196;29;20036;-81
2022/02/22 12:43:10;;;;;;;5.70;2.80;;;9.80;78.10;;;;;;4811247;29;20045;-82
2022/02/22 12:45:46;;;;;;;4.60;2.40;;;9.90;78.80;;;;;;4811054;29;20133;-80
2022/02/22 12:48:14;;;;;;;3.97;2.08;;;9.90;78.20;;;;;;4811269;29;20063;-80
2022/02/22 12:50:40;;;;;;;5.75;2.28;;;9.90;78.20;;;;;;4811472;29;20471;-82
2022/02/22 12:53:07;;;;;;;5.50;2.53;;;9.90;78.10;;;;;;4827031;29;20076;-80
2022/02/22 12:55:45;;;;;;;6.20;3.05;;;9.90;78.10;;;;;;4842215;29;20092;-85
2022/02/22 12:58:11;;;;;;;6.47;2.67;;;9.90;78.20;;;;;;4811210;29;20090;-81
2022/02/22 13:00:37;;;;;;;6.28;2.50;;;10.00;78.10;;;;;;4810977;29;20030;-84